San Roque, Argentina
Current Conditions -  °F | °C
As of 8:00 AM on Sunday 21 Dec 2014 (Local Time) from SAME Reporting Station
Overcast Overcast  
Wind Chill: 14°   Ceiling: 4500
Heat Index: 14°   Visibility: 6mi
Dew Point: -2°   Wind: 5mph
Humidity: 33%   Direction: 140°SE
Pressure: 30"   Gusts: NA
Location:  33.05°S, 68.58°W
Report Text: SAME 211100Z 14004KT 9999 OVC045 14/M02 Q1016
Loading
Personal Weather Stations






























Interactive Weather Map New forecast layout! Learn more

10-Day Weather Forecast

Advertisements
Track Severe Weather on mobile